createdAt,value
2022-09-28T00:01:58.926Z,90563.00
2022-09-28T00:04:25.546Z,90554.53
2022-09-28T00:06:52.089Z,90560.09
2022-09-28T00:09:18.662Z,90560.81
2022-09-28T00:11:46.012Z,90547.53
2022-09-28T00:14:13.332Z,90553.81
2022-09-28T00:16:43.751Z,90554.53
2022-09-28T00:19:11.708Z,90539.19
2022-09-28T00:21:40.566Z,90534.34
2022-09-28T00:24:18.898Z,90532.91
2022-09-28T00:26:53.850Z,90531.56
2022-09-28T00:29:26.965Z,90540.63
2022-09-28T00:32:03.354Z,90528.06
2022-09-28T00:34:32.013Z,90528.06
2022-09-28T00:36:59.222Z,90514.16
2022-09-28T00:39:27.020Z,90518.38
2022-09-28T00:41:54.545Z,90521.16
2022-09-28T00:44:26.971Z,90519.72
2022-09-28T00:47:01.367Z,90526.00
2022-09-28T00:49:40.394Z,90519.72
2022-09-28T00:52:09.112Z,90522.50
2022-09-28T00:54:36.468Z,90508.59
2022-09-28T00:57:04.141Z,90518.28
2022-09-28T00:59:33.335Z,90514.16
2022-09-28T01:02:00.876Z,90508.59
2022-09-28T01:04:30.049Z,90508.59
2022-09-28T01:06:58.100Z,90493.97
2022-09-28T01:09:27.356Z,90490.47
2022-09-28T01:11:55.261Z,90496.75
2022-09-28T01:14:25.715Z,90497.47
2022-09-28T01:17:04.500Z,90498.81
2022-09-28T01:19:46.327Z,90482.84
2022-09-28T01:22:42.541Z,90475.13
2022-09-28T01:25:27.137Z,90473.06
2022-09-28T01:28:20.791Z,90464.72
2022-09-28T01:30:58.425Z,90472.34
2022-09-28T01:33:35.552Z,90466.78
2022-09-28T01:36:35.008Z,90468.22
2022-09-28T01:39:09.534Z,90457.09
2022-09-28T01:41:40.330Z,90455.66
2022-09-28T01:44:12.249Z,90450.81
2022-09-28T01:46:44.591Z,90441.66
2022-09-28T01:49:25.771Z,90443.09
2022-09-28T01:52:02.362Z,90424.34
2022-09-28T01:54:38.226Z,90422.28
2022-09-28T01:57:16.770Z,90416.00
2022-09-28T01:59:50.900Z,90415.28
2022-09-28T02:02:22.466Z,90416.00
2022-09-28T02:05:00.383Z,90414.56
2022-09-28T02:07:37.381Z,90411.78
2022-09-28T02:10:21.072Z,90400.66
2022-09-28T02:12:53.947Z,90402.72
2022-09-28T02:15:27.604Z,90397.16
2022-09-28T02:17:54.696Z,90394.38
2022-09-28T02:20:23.894Z,90397.16
2022-09-28T02:22:54.375Z,90402.72
2022-09-28T02:25:41.211Z,90396.44
2022-09-28T02:28:13.489Z,90397.88
2022-09-28T02:30:42.345Z,90387.38
2022-09-28T02:33:31.462Z,90386.03
2022-09-28T02:35:59.877Z,90380.47
2022-09-28T02:38:26.808Z,90380.47
2022-09-28T02:41:07.281Z,90378.31
2022-09-28T02:44:12.429Z,90379.03
2022-09-28T02:46:57.988Z,90368.63
2022-09-28T02:49:43.150Z,90365.13
2022-09-28T02:52:25.530Z,90359.56
2022-09-28T02:55:08.373Z,90347.03
2022-09-28T02:57:54.543Z,90345.66
2022-09-28T03:00:22.905Z,90336.59
2022-09-28T03:03:12.086Z,90339.38
2022-09-28T03:05:47.372Z,90338.69
2022-09-28T03:08:33.595Z,90343.59
2022-09-28T03:11:09.537Z,90333.81
2022-09-28T03:13:37.126Z,90327.56
2022-09-28T03:16:15.925Z,90328.88
2022-09-28T03:18:42.717Z,90338.69
2022-09-28T03:21:11.370Z,90341.47
2022-09-28T03:23:37.884Z,90324.03
2022-09-28T03:26:04.673Z,90328.25
2022-09-28T03:28:31.158Z,90333.13
2022-09-28T03:30:57.628Z,90327.56
2022-09-28T03:33:24.097Z,90336.53
2022-09-28T03:35:50.903Z,90337.22
2022-09-28T03:38:18.579Z,90342.78
2022-09-28T03:40:53.371Z,90331.66
2022-09-28T03:43:19.913Z,90337.22
2022-09-28T03:45:57.539Z,90324.69
2022-09-28T03:48:35.224Z,90333.75
2022-09-28T03:51:04.523Z,90331.66
2022-09-28T03:53:31.406Z,90335.81
2022-09-28T03:56:03.211Z,90328.88
2022-09-28T03:58:29.705Z,90324.69
2022-09-28T04:01:02.354Z,90327.47
2022-09-28T04:03:29.141Z,90326.09
2022-09-28T04:05:55.642Z,90319.13
2022-09-28T04:08:22.329Z,90321.91
2022-09-28T04:10:48.810Z,90317.66
2022-09-28T04:13:15.349Z,90314.28
2022-09-28T04:15:42.472Z,90314.28
2022-09-28T04:18:13.552Z,90308.00
2022-09-28T04:20:46.036Z,90306.53
2022-09-28T04:23:12.482Z,90310.06
2022-09-28T04:25:39.677Z,90304.50
2022-09-28T04:28:24.950Z,90291.94
2022-09-28T04:30:51.522Z,90292.63
2022-09-28T04:33:18.057Z,90291.22
2022-09-28T04:35:44.614Z,90289.84
2022-09-28T04:38:11.121Z,90282.88
2022-09-28T04:40:37.634Z,90281.44
2022-09-28T04:43:05.252Z,90278.72
2022-09-28T04:45:31.787Z,90288.53
2022-09-28T04:47:58.297Z,90278.91
2022-09-28T04:50:24.758Z,90277.66
2022-09-28T04:52:51.208Z,90276.41
2022-09-28T04:55:17.779Z,90284.88
2022-09-28T04:57:44.261Z,90283.38
2022-09-28T05:00:11.384Z,90287.66
2022-09-28T05:02:38.071Z,90288.94
2022-09-28T05:05:04.972Z,90293.09
2022-09-28T05:07:31.430Z,90282.66
2022-09-28T05:09:58.027Z,90270.84
2022-09-28T05:12:24.573Z,90274.94
2022-09-28T05:14:51.052Z,90276.31
2022-09-28T05:17:17.589Z,90273.53
2022-09-28T05:19:44.098Z,90265.19
2022-09-28T05:22:14.793Z,90272.09
2022-09-28T05:24:41.704Z,90272.09
2022-09-28T05:27:08.345Z,90272.09
2022-09-28T05:29:34.951Z,90269.94
2022-09-28T05:32:01.757Z,90262.31
2022-09-28T05:34:29.023Z,90258.81
2022-09-28T05:36:55.561Z,90262.22
2022-09-28T05:39:22.045Z,90262.97
2022-09-28T05:41:48.739Z,90260.81
2022-09-28T05:44:15.382Z,90266.38
2022-09-28T05:46:41.958Z,90253.78
2022-09-28T05:49:08.401Z,90254.53
2022-09-28T05:51:34.910Z,90248.22
2022-09-28T05:54:05.613Z,90242.69
2022-09-28T05:56:32.987Z,90249.69
2022-09-28T05:58:59.609Z,90254.53
2022-09-28T06:01:26.249Z,90248.22
2022-09-28T06:03:52.759Z,90241.25
2022-09-28T06:06:19.223Z,90242.69
2022-09-28T06:08:46.421Z,90253.78
2022-09-28T06:11:12.937Z,90256.50
2022-09-28T06:13:42.491Z,90253.00
2022-09-28T06:16:10.519Z,90259.28
2022-09-28T06:18:37.037Z,90259.34
2022-09-28T06:21:05.855Z,90262.78
2022-09-28T06:23:32.357Z,90257.94
2022-09-28T06:25:59.542Z,90250.94
2022-09-28T06:28:26.955Z,90252.38
2022-09-28T06:30:54.101Z,90250.94
2022-09-28T06:33:20.770Z,90257.84
2022-09-28T06:35:47.978Z,90271.75
2022-09-28T06:38:14.452Z,90259.22
2022-09-28T06:40:41.004Z,90266.19
2022-09-28T06:43:14.818Z,90260.63
2022-09-28T06:45:42.834Z,90268.25
2022-09-28T06:48:10.447Z,90271.03
2022-09-28T06:50:39.522Z,90265.47
2022-09-28T06:53:09.399Z,90263.41
2022-09-28T06:55:39.245Z,90270.31
2022-09-28T06:58:09.630Z,90266.19
2022-09-28T07:00:37.541Z,90275.16
2022-09-28T07:03:06.890Z,90270.31
2022-09-28T07:05:36.778Z,90264.03
2022-09-28T07:08:04.646Z,90268.88
2022-09-28T07:10:32.084Z,90268.88
2022-09-28T07:13:02.569Z,90267.56
2022-09-28T07:15:29.869Z,90268.88
2022-09-28T07:18:02.449Z,90268.88
2022-09-28T07:20:30.227Z,90270.31
2022-09-28T07:23:09.289Z,90264.03
2022-09-28T07:25:45.375Z,90258.47
2022-09-28T07:28:12.005Z,90266.09
2022-09-28T07:30:38.715Z,90269.59
2022-09-28T07:33:07.853Z,90268.88
2022-09-28T07:35:34.449Z,90253.56
2022-09-28T07:38:06.155Z,90266.00
2022-09-28T07:40:52.816Z,90261.91
2022-09-28T07:43:20.858Z,90267.47
2022-09-28T07:45:49.223Z,90274.34
2022-09-28T07:48:17.086Z,90272.28
2022-09-28T07:50:57.299Z,90273.03
2022-09-28T07:53:25.550Z,90266.00
2022-09-28T07:55:56.337Z,90266.00
2022-09-28T07:58:23.213Z,90266.00
2022-09-28T08:00:50.764Z,90265.28
2022-09-28T08:03:19.329Z,90266.75
2022-09-28T08:05:47.471Z,90263.88
2022-09-28T08:08:14.946Z,90272.94
2022-09-28T08:10:47.255Z,90270.84
2022-09-28T08:13:15.219Z,90273.63
2022-09-28T08:15:42.649Z,90268.69
2022-09-28T08:18:09.508Z,90272.94
2022-09-28T08:20:54.620Z,90270.84
2022-09-28T08:23:21.133Z,90267.38
2022-09-28T08:25:52.544Z,90268.69
2022-09-28T08:28:19.052Z,90268.69
2022-09-28T08:30:46.973Z,90271.56
2022-09-28T08:33:14.768Z,90274.25
2022-09-28T08:35:42.099Z,90268.69
2022-09-28T08:38:09.501Z,90275.72
2022-09-28T08:40:49.747Z,90267.00
2022-09-28T08:43:41.475Z,90273.94
2022-09-28T08:46:12.133Z,90269.09
2022-09-28T08:49:13.328Z,90267.00
2022-09-28T08:52:01.593Z,90269.88
2022-09-28T08:54:33.989Z,90272.66
2022-09-28T08:57:10.448Z,90274.03
2022-09-28T08:59:57.109Z,90269.88
2022-09-28T09:02:36.167Z,90268.47
2022-09-28T09:05:06.266Z,90269.88
2022-09-28T09:08:08.832Z,90263.69
2022-09-28T09:10:56.040Z,90257.44
2022-09-28T09:13:44.206Z,90253.28
2022-09-28T09:16:29.207Z,90254.00
2022-09-28T09:19:00.832Z,90245.66
2022-09-28T09:21:42.101Z,90249.09
2022-09-28T09:24:27.927Z,90245.66
2022-09-28T09:27:05.827Z,90249.16
2022-09-28T09:30:01.153Z,90245.03
2022-09-28T09:32:53.384Z,90239.47
2022-09-28T09:35:58.363Z,90224.13
2022-09-28T09:38:28.507Z,90222.78
2022-09-28T09:41:08.207Z,90217.22
2022-09-28T09:43:46.960Z,90222.78
2022-09-28T09:46:41.321Z,90211.66
2022-09-28T09:49:18.048Z,90210.22
2022-09-28T09:51:52.002Z,90208.88
2022-09-28T09:54:29.357Z,90200.56
2022-09-28T09:57:04.264Z,90188.69
2022-09-28T09:59:34.459Z,90183.88
2022-09-28T10:02:03.638Z,90186.66
2022-09-28T10:04:37.257Z,90185.28
2022-09-28T10:07:05.723Z,90179.03
2022-09-28T10:09:35.394Z,90169.97
2022-09-28T10:12:02.495Z,90172.75
2022-09-28T10:14:31.038Z,90176.94
2022-09-28T10:16:58.241Z,90169.31
2022-09-28T10:19:33.127Z,90163.03
2022-09-28T10:22:05.787Z,90160.91
2022-09-28T10:24:40.245Z,90162.34
2022-09-28T10:27:13.556Z,90150.59
2022-09-28T10:29:51.001Z,90146.34
2022-09-28T10:32:21.098Z,90151.91
2022-09-28T10:34:50.324Z,90151.84
2022-09-28T10:37:18.965Z,90153.91
2022-09-28T10:39:55.218Z,90153.28
2022-09-28T10:42:26.534Z,90149.06
2022-09-28T10:45:20.637Z,90144.94
2022-09-28T10:47:47.469Z,90141.44
2022-09-28T10:50:26.539Z,90145.66
2022-09-28T10:52:53.097Z,90144.22
2022-09-28T10:55:33.348Z,90140.78
2022-09-28T10:58:00.100Z,90138.66
2022-09-28T11:00:29.665Z,90142.88
2022-09-28T11:02:56.715Z,90140.09
2022-09-28T11:05:27.848Z,90138.03
2022-09-28T11:07:56.653Z,90129.69
2022-09-28T11:10:26.352Z,90125.56
2022-09-28T11:12:54.344Z,90113.72
2022-09-28T11:15:25.981Z,90118.56
2022-09-28T11:17:52.707Z,90107.44
2022-09-28T11:20:27.733Z,90119.28
2022-09-28T11:23:00.315Z,90114.44
2022-09-28T11:25:29.225Z,90111.75
2022-09-28T11:28:04.523Z,90113.25
2022-09-28T11:30:38.433Z,90111.88
2022-09-28T11:33:12.741Z,90107.06
2022-09-28T11:35:42.197Z,90103.63
2022-09-28T11:38:18.465Z,90109.91
2022-09-28T11:41:13.385Z,90109.19
2022-09-28T11:44:12.274Z,90116.19
2022-09-28T11:47:03.670Z,90116.97
2022-09-28T11:49:45.270Z,90124.06
2022-09-28T11:52:20.632Z,90127.75
2022-09-28T11:55:03.350Z,90120.22
2022-09-28T11:57:36.551Z,90121.00
2022-09-28T12:00:11.220Z,90118.28
2022-09-28T12:02:50.998Z,90115.59
2022-09-28T12:05:24.058Z,90117.00
2022-09-28T12:08:02.065Z,90113.63
2022-09-28T12:10:45.593Z,90119.88
2022-09-28T12:13:19.525Z,90115.75
2022-09-28T12:16:27.592Z,90113.66
2022-09-28T12:19:05.567Z,90115.75
2022-09-28T12:21:45.562Z,90107.31
2022-09-28T12:24:24.267Z,90110.03
2022-09-28T12:27:03.586Z,90107.88
2022-09-28T12:29:37.507Z,90106.44
2022-09-28T12:32:25.814Z,90108.53
2022-09-28T12:34:52.311Z,90108.44
2022-09-28T12:37:24.741Z,90107.00
2022-09-28T12:40:23.587Z,90100.00
2022-09-28T12:42:55.730Z,90100.66
2022-09-28T12:45:28.389Z,90102.72
2022-09-28T12:47:57.721Z,90086.03
2022-09-28T12:50:57.170Z,90079.03
2022-09-28T12:53:33.102Z,90077.56
2022-09-28T12:56:26.180Z,90056.69
2022-09-28T12:59:19.941Z,90052.47
2022-09-28T13:02:14.918Z,90063.59
2022-09-28T13:05:02.558Z,90062.16
2022-09-28T13:07:45.180Z,90058.66
2022-09-28T13:10:16.748Z,90064.22
2022-09-28T13:12:58.093Z,90056.59
2022-09-28T13:15:32.120Z,90055.16
2022-09-28T13:18:19.854Z,90055.16
2022-09-28T13:20:55.538Z,90055.16
2022-09-28T13:23:27.257Z,90055.16
2022-09-28T13:26:05.820Z,90050.31
2022-09-28T13:28:34.292Z,90042.63
2022-09-28T13:31:03.066Z,90037.06
2022-09-28T13:33:35.761Z,90047.47
2022-09-28T13:36:21.942Z,90024.50
2022-09-28T13:38:52.300Z,90030.06
2022-09-28T13:41:32.093Z,90026.56
2022-09-28T13:44:13.527Z,90023.78
2022-09-28T13:46:58.229Z,90029.34
2022-09-28T13:49:51.201Z,90031.50
2022-09-28T13:52:32.626Z,90020.38
2022-09-28T13:55:09.145Z,90020.38
2022-09-28T13:57:35.593Z,90016.88
2022-09-28T14:00:11.563Z,90021.72
2022-09-28T14:02:46.962Z,90013.38
2022-09-28T14:05:35.155Z,90020.28
2022-09-28T14:08:23.390Z,90011.94
2022-09-28T14:10:52.885Z,90017.50
2022-09-28T14:13:58.239Z,90014.00
2022-09-28T14:16:32.589Z,90010.53
2022-09-28T14:19:19.100Z,90009.09
2022-09-28T14:22:22.941Z,89993.13
2022-09-28T14:25:08.690Z,89996.53
2022-09-28T14:27:37.740Z,89992.41
2022-09-28T14:30:12.920Z,89989.63
2022-09-28T14:32:43.156Z,89981.28
2022-09-28T14:35:40.276Z,89981.28
2022-09-28T14:38:45.100Z,89979.84
2022-09-28T14:41:31.219Z,89979.84
2022-09-28T14:44:12.602Z,89979.84
2022-09-28T14:46:45.544Z,89988.19
2022-09-28T14:49:19.235Z,89982.63
2022-09-28T14:52:03.332Z,89983.97
2022-09-28T14:54:40.589Z,89995.09
2022-09-28T14:57:16.809Z,90006.22
2022-09-28T14:59:46.249Z,90009.09
2022-09-28T15:02:16.954Z,90006.22
2022-09-28T15:04:47.717Z,90007.66
2022-09-28T15:07:26.552Z,90005.59
2022-09-28T15:09:55.889Z,90007.66
2022-09-28T15:12:27.729Z,90010.44
2022-09-28T15:15:02.592Z,90016.00
2022-09-28T15:17:38.471Z,90018.78
2022-09-28T15:20:12.039Z,90013.22
2022-09-28T15:22:45.909Z,90003.78
2022-09-28T15:25:19.956Z,90003.06
2022-09-28T15:27:52.635Z,89997.50
2022-09-28T15:30:23.230Z,89998.34
2022-09-28T15:32:50.689Z,90001.94
2022-09-28T15:35:22.031Z,89988.84
2022-09-28T15:37:52.841Z,89993.84
2022-09-28T15:40:32.061Z,90000.19
2022-09-28T15:42:59.605Z,90005.81
2022-09-28T15:45:34.948Z,90001.72
2022-09-28T15:48:41.107Z,89993.41
2022-09-28T15:51:12.857Z,90001.16
2022-09-28T15:54:08.176Z,90002.59
2022-09-28T15:56:59.696Z,90004.72
2022-09-28T15:59:30.040Z,90011.72
2022-09-28T16:02:22.928Z,90003.38
2022-09-28T16:04:54.034Z,90012.44
2022-09-28T16:07:25.214Z,90015.28
2022-09-28T16:10:20.922Z,90022.22
2022-09-28T16:12:54.468Z,90019.44
2022-09-28T16:15:26.020Z,90022.28
2022-09-28T16:17:56.860Z,90023.00
2022-09-28T16:20:32.055Z,90036.28
2022-09-28T16:23:05.868Z,90027.94
2022-09-28T16:25:37.180Z,90029.28
2022-09-28T16:28:06.028Z,90033.50
2022-09-28T16:30:34.579Z,90034.19
2022-09-28T16:33:05.610Z,90036.97
2022-09-28T16:35:34.920Z,90022.44
2022-09-28T16:38:05.593Z,90030.78
2022-09-28T16:40:33.380Z,90036.34
2022-09-28T16:43:03.356Z,90037.06
2022-09-28T16:45:29.988Z,90046.13
2022-09-28T16:47:57.648Z,90040.56
2022-09-28T16:50:25.558Z,90041.97
2022-09-28T16:53:34.718Z,90053.13
2022-09-28T16:56:02.648Z,90049.00
2022-09-28T16:58:31.260Z,90049.69
2022-09-28T17:00:58.794Z,90065.03
2022-09-28T17:03:25.857Z,90060.81
2022-09-28T17:05:53.438Z,90060.13
2022-09-28T17:08:22.622Z,90060.13
2022-09-28T17:11:17.937Z,90059.31
2022-09-28T17:13:46.421Z,90053.03
2022-09-28T17:16:18.336Z,90052.97
2022-09-28T17:18:46.010Z,90057.09
2022-09-28T17:21:18.488Z,90055.69
2022-09-28T17:23:46.811Z,90054.22
2022-09-28T17:26:31.728Z,90048.66
2022-09-28T17:28:59.418Z,90051.38
2022-09-28T17:31:26.731Z,90045.81
2022-09-28T17:33:54.466Z,90048.59
2022-09-28T17:36:21.602Z,90054.78
2022-09-28T17:38:49.387Z,90054.06
2022-09-28T17:41:20.427Z,90065.91
2022-09-28T17:43:47.722Z,90066.56
2022-09-28T17:46:36.167Z,90063.06
2022-09-28T17:49:06.035Z,90063.78
2022-09-28T17:51:35.422Z,90066.44
2022-09-28T17:54:02.096Z,90077.56
2022-09-28T17:56:32.100Z,90083.13
2022-09-28T17:59:01.381Z,90088.69
2022-09-28T18:01:33.838Z,90079.63
2022-09-28T18:04:05.345Z,90083.78
2022-09-28T18:06:33.604Z,90088.69
2022-09-28T18:09:02.800Z,90092.84
2022-09-28T18:11:29.839Z,90102.59
2022-09-28T18:13:56.379Z,90099.09
2022-09-28T18:16:23.040Z,90098.41
2022-09-28T18:18:49.568Z,90103.97
2022-09-28T18:21:16.033Z,90103.97
2022-09-28T18:23:42.601Z,90113.66
2022-09-28T18:26:16.752Z,90117.06
2022-09-28T18:28:43.269Z,90114.38
2022-09-28T18:31:12.040Z,90129.63
2022-09-28T18:33:39.432Z,90128.91
2022-09-28T18:36:06.768Z,90133.75
2022-09-28T18:38:36.984Z,90138.59
2022-09-28T18:41:08.482Z,90140.66
2022-09-28T18:43:36.450Z,90139.94
2022-09-28T18:46:10.996Z,90146.94
2022-09-28T18:48:38.517Z,90142.72
2022-09-28T18:51:08.758Z,90151.06
2022-09-28T18:53:35.442Z,90159.41
2022-09-28T18:56:10.525Z,90158.00
2022-09-28T18:58:38.875Z,90163.56
2022-09-28T19:01:30.016Z,90164.25
2022-09-28T19:04:00.530Z,90170.53
2022-09-28T19:06:28.003Z,90175.38
2022-09-28T19:08:58.597Z,90171.91
2022-09-28T19:11:25.500Z,90180.94
2022-09-28T19:13:54.229Z,90179.53
2022-09-28T19:16:24.269Z,90178.78
2022-09-28T19:18:52.495Z,90179.53
2022-09-28T19:21:20.185Z,90183.03
2022-09-28T19:23:49.693Z,90179.53
2022-09-28T19:26:22.368Z,90189.91
2022-09-28T19:28:49.559Z,90182.94
2022-09-28T19:31:16.271Z,90188.50
2022-09-28T19:33:46.439Z,90188.50
2022-09-28T19:36:15.806Z,90194.06
2022-09-28T19:38:42.422Z,90198.91
2022-09-28T19:41:37.816Z,90196.84
2022-09-28T19:44:09.984Z,90196.84
2022-09-28T19:46:39.502Z,90199.63
2022-09-28T19:49:09.913Z,90200.97
2022-09-28T19:51:38.792Z,90207.97
2022-09-28T19:54:11.284Z,90202.31
2022-09-28T19:56:37.659Z,90210.03
2022-09-28T19:59:04.445Z,90209.31
2022-09-28T20:01:31.765Z,90207.97
2022-09-28T20:03:59.302Z,90207.88
2022-09-28T20:06:26.159Z,90214.16
2022-09-28T20:08:53.355Z,90220.44
2022-09-28T20:11:20.726Z,90227.34
2022-09-28T20:13:48.290Z,90226.00
2022-09-28T20:16:18.634Z,90230.84
2022-09-28T20:18:52.399Z,90231.56
2022-09-28T20:21:25.955Z,90236.41
2022-09-28T20:23:53.666Z,90232.91
2022-09-28T20:26:20.257Z,90229.41
2022-09-28T20:28:46.867Z,90234.97
2022-09-28T20:31:19.326Z,90246.09
2022-09-28T20:33:46.594Z,90246.81
2022-09-28T20:36:19.036Z,90245.38
2022-09-28T20:38:53.972Z,90239.81
2022-09-28T20:41:22.729Z,90250.94
2022-09-28T20:43:58.858Z,90248.22
2022-09-28T20:46:29.000Z,90255.25
2022-09-28T20:48:56.557Z,90262.22
2022-09-28T20:51:23.034Z,90262.22
2022-09-28T20:53:53.853Z,90260.09
2022-09-28T20:56:23.037Z,90270.47
2022-09-28T20:58:51.095Z,90270.47
2022-09-28T21:01:23.652Z,90289.94
2022-09-28T21:03:50.344Z,90287.16
2022-09-28T21:06:18.148Z,90288.44
2022-09-28T21:08:45.828Z,90302.44
2022-09-28T21:11:14.176Z,90296.88
2022-09-28T21:13:42.816Z,90292.63
2022-09-28T21:16:18.030Z,90300.97
2022-09-28T21:18:44.729Z,90302.44
2022-09-28T21:21:17.422Z,90303.75
2022-09-28T21:23:46.781Z,90307.91
2022-09-28T21:26:24.726Z,90314.19
2022-09-28T21:29:03.093Z,90316.25
2022-09-28T21:31:47.497Z,90316.25
2022-09-28T21:34:19.306Z,90310.69
2022-09-28T21:36:47.702Z,90327.38
2022-09-28T21:39:14.386Z,90323.22
2022-09-28T21:41:41.449Z,90319.03
2022-09-28T21:44:08.634Z,90316.25
2022-09-28T21:46:36.796Z,90326.00
2022-09-28T21:49:06.389Z,90327.38
2022-09-28T21:51:33.652Z,90323.94
2022-09-28T21:54:00.270Z,90335.06
2022-09-28T21:56:26.913Z,90334.34
2022-09-28T21:58:53.478Z,90328.78
2022-09-28T22:01:22.371Z,90329.50
2022-09-28T22:03:53.707Z,90328.78
2022-09-28T22:06:22.149Z,90332.94
2022-09-28T22:08:50.071Z,90338.50
2022-09-28T22:11:22.153Z,90345.47
2022-09-28T22:13:59.650Z,90347.56
2022-09-28T22:16:30.959Z,90349.63
2022-09-28T22:18:58.978Z,90349.63
2022-09-28T22:21:28.942Z,90351.03
2022-09-28T22:24:01.087Z,90349.63
2022-09-28T22:26:29.308Z,90360.75
2022-09-28T22:28:58.160Z,90360.75
2022-09-28T22:31:33.002Z,90367.03
2022-09-28T22:33:59.605Z,90375.38
2022-09-28T22:36:26.633Z,90371.88
2022-09-28T22:38:54.853Z,90373.22
2022-09-28T22:41:21.553Z,90376.00
2022-09-28T22:43:49.759Z,90370.44
2022-09-28T22:46:19.517Z,90372.50
2022-09-28T22:48:51.056Z,90374.56
2022-09-28T22:51:17.699Z,90369.00
2022-09-28T22:53:44.376Z,90375.28
2022-09-28T22:56:15.931Z,90374.56
2022-09-28T22:58:44.094Z,90369.00
2022-09-28T23:01:12.119Z,90370.44
2022-09-28T23:03:40.429Z,90369.00
2022-09-28T23:06:07.905Z,90378.06
2022-09-28T23:08:34.613Z,90380.13
2022-09-28T23:11:01.155Z,90385.66
2022-09-28T23:13:28.727Z,90380.13
2022-09-28T23:16:00.704Z,90380.13
2022-09-28T23:18:29.700Z,90385.66
2022-09-28T23:20:58.248Z,90384.34
2022-09-28T23:23:24.907Z,90374.56
2022-09-28T23:25:52.709Z,90367.56
2022-09-28T23:28:21.074Z,90367.56
2022-09-28T23:30:47.847Z,90374.56
2022-09-28T23:33:16.070Z,90384.25
2022-09-28T23:35:43.017Z,90390.50
2022-09-28T23:38:13.914Z,90389.81
2022-09-28T23:40:41.524Z,90381.47
2022-09-28T23:43:08.352Z,90369.63
2022-09-28T23:45:34.809Z,90371.69
2022-09-28T23:48:01.545Z,90367.56
2022-09-28T23:50:28.305Z,90373.13
2022-09-28T23:52:54.829Z,90367.56
2022-09-28T23:55:21.310Z,90371.69
2022-09-28T23:57:47.744Z,90372.41
